sensor_id;sensor_type;location;lat;lon;timestamp;P1;durP1;ratioP1;P2;durP2;ratioP2
69185;SDS011;56298;49.246;9.410;2023-11-19T00:00:51;8.90;;;3.77;;
69185;SDS011;56298;49.246;9.410;2023-11-19T00:03:16;8.97;;;3.90;;
69185;SDS011;56298;49.246;9.410;2023-11-19T00:05:42;7.67;;;3.90;;
69185;SDS011;56298;49.246;9.410;2023-11-19T00:08:09;8.70;;;3.97;;
69185;SDS011;56298;49.246;9.410;2023-11-19T00:10:35;9.23;;;4.30;;
69185;SDS011;56298;49.246;9.410;2023-11-19T00:13:00;9.40;;;4.27;;
69185;SDS011;56298;49.246;9.410;2023-11-19T00:15:25;9.23;;;3.83;;
69185;SDS011;56298;49.246;9.410;2023-11-19T00:17:50;8.70;;;3.93;;
69185;SDS011;56298;49.246;9.410;2023-11-19T00:20:17;6.77;;;3.33;;
69185;SDS011;56298;49.246;9.410;2023-11-19T00:22:43;9.20;;;3.40;;
69185;SDS011;56298;49.246;9.410;2023-11-19T00:25:09;7.20;;;3.27;;
69185;SDS011;56298;49.246;9.410;2023-11-19T00:27:35;7.55;;;3.13;;
69185;SDS011;56298;49.246;9.410;2023-11-19T00:30:02;7.45;;;3.40;;
69185;SDS011;56298;49.246;9.410;2023-11-19T00:32:30;8.00;;;4.00;;
69185;SDS011;56298;49.246;9.410;2023-11-19T00:34:55;8.57;;;4.10;;
69185;SDS011;56298;49.246;9.410;2023-11-19T00:37:20;7.67;;;3.93;;
69185;SDS011;56298;49.246;9.410;2023-11-19T00:39:46;8.60;;;4.47;;
69185;SDS011;56298;49.246;9.410;2023-11-19T00:42:11;9.10;;;4.43;;
69185;SDS011;56298;49.246;9.410;2023-11-19T00:44:36;9.23;;;4.27;;
69185;SDS011;56298;49.246;9.410;2023-11-19T00:47:02;8.53;;;4.30;;
69185;SDS011;56298;49.246;9.410;2023-11-19T00:49:27;8.10;;;4.20;;
69185;SDS011;56298;49.246;9.410;2023-11-19T00:51:53;8.00;;;4.30;;
69185;SDS011;56298;49.246;9.410;2023-11-19T00:54:18;8.93;;;4.40;;
69185;SDS011;56298;49.246;9.410;2023-11-19T00:56:43;10.80;;;4.77;;
69185;SDS011;56298;49.246;9.410;2023-11-19T00:59:09;18.00;;;5.30;;
69185;SDS011;56298;49.246;9.410;2023-11-19T01:01:35;14.23;;;4.90;;
69185;SDS011;56298;49.246;9.410;2023-11-19T01:04:00;10.13;;;4.73;;
69185;SDS011;56298;49.246;9.410;2023-11-19T01:06:31;23.07;;;5.60;;
69185;SDS011;56298;49.246;9.410;2023-11-19T01:08:57;19.03;;;5.53;;
69185;SDS011;56298;49.246;9.410;2023-11-19T01:11:23;11.95;;;4.93;;
69185;SDS011;56298;49.246;9.410;2023-11-19T01:13:49;11.18;;;5.35;;
69185;SDS011;56298;49.246;9.410;2023-11-19T01:16:15;10.37;;;5.30;;
69185;SDS011;56298;49.246;9.410;2023-11-19T01:18:41;9.40;;;4.70;;
69185;SDS011;56298;49.246;9.410;2023-11-19T01:21:06;34.17;;;7.20;;
69185;SDS011;56298;49.246;9.410;2023-11-19T01:23:31;10.70;;;5.27;;
69185;SDS011;56298;49.246;9.410;2023-11-19T01:25:57;11.55;;;5.43;;
69185;SDS011;56298;49.246;9.410;2023-11-19T01:28:23;11.90;;;5.60;;
69185;SDS011;56298;49.246;9.410;2023-11-19T01:30:50;10.77;;;5.70;;
69185;SDS011;56298;49.246;9.410;2023-11-19T01:33:16;10.82;;;5.65;;
69185;SDS011;56298;49.246;9.410;2023-11-19T01:35:41;40.63;;;7.27;;
69185;SDS011;56298;49.246;9.410;2023-11-19T01:38:06;11.03;;;5.10;;
69185;SDS011;56298;49.246;9.410;2023-11-19T01:40:33;15.75;;;6.22;;
69185;SDS011;56298;49.246;9.410;2023-11-19T01:42:58;15.10;;;6.00;;
69185;SDS011;56298;49.246;9.410;2023-11-19T01:45:27;16.27;;;6.10;;
69185;SDS011;56298;49.246;9.410;2023-11-19T01:47:54;10.77;;;5.80;;
69185;SDS011;56298;49.246;9.410;2023-11-19T01:50:20;10.27;;;5.43;;
69185;SDS011;56298;49.246;9.410;2023-11-19T01:52:47;17.85;;;6.40;;
69185;SDS011;56298;49.246;9.410;2023-11-19T01:55:13;12.85;;;5.88;;
69185;SDS011;56298;49.246;9.410;2023-11-19T01:57:38;34.17;;;7.33;;
69185;SDS011;56298;49.246;9.410;2023-11-19T02:00:06;12.95;;;5.50;;
69185;SDS011;56298;49.246;9.410;2023-11-19T02:02:36;13.23;;;5.93;;
69185;SDS011;56298;49.246;9.410;2023-11-19T02:05:01;14.20;;;6.00;;
69185;SDS011;56298;49.246;9.410;2023-11-19T02:07:27;11.37;;;5.80;;
69185;SDS011;56298;49.246;9.410;2023-11-19T02:09:53;10.70;;;5.63;;
69185;SDS011;56298;49.246;9.410;2023-11-19T02:12:18;10.70;;;5.90;;
69185;SDS011;56298;49.246;9.410;2023-11-19T02:14:45;12.43;;;5.57;;
69185;SDS011;56298;49.246;9.410;2023-11-19T02:17:26;13.17;;;6.07;;
69185;SDS011;56298;49.246;9.410;2023-11-19T02:19:59;189.23;;;18.02;;
69185;SDS011;56298;49.246;9.410;2023-11-19T02:22:24;13.73;;;6.40;;
69185;SDS011;56298;49.246;9.410;2023-11-19T02:24:51;25.13;;;7.93;;
69185;SDS011;56298;49.246;9.410;2023-11-19T02:27:25;77.70;;;11.77;;
69185;SDS011;56298;49.246;9.410;2023-11-19T02:29:58;12.52;;;5.90;;
69185;SDS011;56298;49.246;9.410;2023-11-19T02:32:26;35.27;;;7.63;;
69185;SDS011;56298;49.246;9.410;2023-11-19T02:34:53;21.40;;;6.70;;
69185;SDS011;56298;49.246;9.410;2023-11-19T02:37:18;141.53;;;14.77;;
69185;SDS011;56298;49.246;9.410;2023-11-19T02:39:44;131.23;;;14.52;;
69185;SDS011;56298;49.246;9.410;2023-11-19T02:42:09;12.27;;;6.60;;
69185;SDS011;56298;49.246;9.410;2023-11-19T02:44:35;11.97;;;6.30;;
69185;SDS011;56298;49.246;9.410;2023-11-19T02:47:00;13.53;;;6.67;;
69185;SDS011;56298;49.246;9.410;2023-11-19T02:49:27;12.20;;;6.80;;
69185;SDS011;56298;49.246;9.410;2023-11-19T02:51:53;12.77;;;7.38;;
69185;SDS011;56298;49.246;9.410;2023-11-19T02:54:18;12.00;;;6.60;;
69185;SDS011;56298;49.246;9.410;2023-11-19T02:56:44;12.20;;;7.38;;
69185;SDS011;56298;49.246;9.410;2023-11-19T02:59:12;12.68;;;6.97;;
69185;SDS011;56298;49.246;9.410;2023-11-19T03:01:52;11.27;;;6.50;;
69185;SDS011;56298;49.246;9.410;2023-11-19T03:04:17;9.63;;;5.78;;
69185;SDS011;56298;49.246;9.410;2023-11-19T03:06:45;9.43;;;5.00;;
69185;SDS011;56298;49.246;9.410;2023-11-19T03:09:10;10.87;;;5.33;;
69185;SDS011;56298;49.246;9.410;2023-11-19T03:11:35;41.50;;;8.17;;
69185;SDS011;56298;49.246;9.410;2023-11-19T03:14:01;37.90;;;9.13;;
69185;SDS011;56298;49.246;9.410;2023-11-19T03:16:28;13.93;;;6.85;;
69185;SDS011;56298;49.246;9.410;2023-11-19T03:18:53;13.60;;;7.17;;
69185;SDS011;56298;49.246;9.410;2023-11-19T03:21:18;13.37;;;6.73;;
69185;SDS011;56298;49.246;9.410;2023-11-19T03:23:43;10.80;;;6.20;;
69185;SDS011;56298;49.246;9.410;2023-11-19T03:26:11;10.53;;;6.00;;
69185;SDS011;56298;49.246;9.410;2023-11-19T03:28:36;10.83;;;6.23;;
69185;SDS011;56298;49.246;9.410;2023-11-19T03:31:04;11.33;;;5.80;;
69185;SDS011;56298;49.246;9.410;2023-11-19T03:33:33;10.30;;;6.00;;
69185;SDS011;56298;49.246;9.410;2023-11-19T03:35:58;10.73;;;5.60;;
69185;SDS011;56298;49.246;9.410;2023-11-19T03:38:24;10.23;;;5.80;;
69185;SDS011;56298;49.246;9.410;2023-11-19T03:40:52;11.40;;;5.90;;
69185;SDS011;56298;49.246;9.410;2023-11-19T03:43:17;12.50;;;5.97;;
69185;SDS011;56298;49.246;9.410;2023-11-19T03:45:44;11.25;;;5.90;;
69185;SDS011;56298;49.246;9.410;2023-11-19T03:48:09;11.20;;;5.90;;
69185;SDS011;56298;49.246;9.410;2023-11-19T03:50:34;10.67;;;5.57;;
69185;SDS011;56298;49.246;9.410;2023-11-19T03:53:00;10.47;;;5.50;;
69185;SDS011;56298;49.246;9.410;2023-11-19T03:55:25;12.00;;;6.10;;
69185;SDS011;56298;49.246;9.410;2023-11-19T03:57:50;11.43;;;5.63;;
69185;SDS011;56298;49.246;9.410;2023-11-19T04:00:15;10.70;;;6.10;;
69185;SDS011;56298;49.246;9.410;2023-11-19T04:02:41;10.77;;;6.23;;
69185;SDS011;56298;49.246;9.410;2023-11-19T04:05:06;10.03;;;6.07;;
69185;SDS011;56298;49.246;9.410;2023-11-19T04:07:32;10.23;;;6.10;;
69185;SDS011;56298;49.246;9.410;2023-11-19T04:09:58;9.47;;;5.47;;
69185;SDS011;56298;49.246;9.410;2023-11-19T04:12:23;10.77;;;5.97;;
69185;SDS011;56298;49.246;9.410;2023-11-19T04:14:49;10.53;;;6.00;;
69185;SDS011;56298;49.246;9.410;2023-11-19T04:17:14;10.23;;;5.68;;
69185;SDS011;56298;49.246;9.410;2023-11-19T04:19:39;13.57;;;6.03;;
69185;SDS011;56298;49.246;9.410;2023-11-19T04:22:07;72.22;;;9.85;;
69185;SDS011;56298;49.246;9.410;2023-11-19T04:24:35;38.72;;;7.75;;
69185;SDS011;56298;49.246;9.410;2023-11-19T04:27:01;13.65;;;6.63;;
69185;SDS011;56298;49.246;9.410;2023-11-19T04:29:26;11.13;;;6.28;;
69185;SDS011;56298;49.246;9.410;2023-11-19T04:31:51;15.47;;;6.93;;
69185;SDS011;56298;49.246;9.410;2023-11-19T04:34:17;13.50;;;6.70;;
69185;SDS011;56298;49.246;9.410;2023-11-19T04:36:42;66.77;;;9.87;;
69185;SDS011;56298;49.246;9.410;2023-11-19T04:39:08;12.27;;;6.97;;
69185;SDS011;56298;49.246;9.410;2023-11-19T04:41:34;12.47;;;6.27;;
69185;SDS011;56298;49.246;9.410;2023-11-19T04:44:00;14.30;;;6.65;;
69185;SDS011;56298;49.246;9.410;2023-11-19T04:46:26;26.87;;;7.50;;
69185;SDS011;56298;49.246;9.410;2023-11-19T04:48:51;13.67;;;6.20;;
69185;SDS011;56298;49.246;9.410;2023-11-19T04:51:16;12.27;;;6.20;;
69185;SDS011;56298;49.246;9.410;2023-11-19T04:53:42;11.97;;;6.10;;
69185;SDS011;56298;49.246;9.410;2023-11-19T04:56:07;10.87;;;5.90;;
69185;SDS011;56298;49.246;9.410;2023-11-19T04:58:34;10.23;;;5.70;;
69185;SDS011;56298;49.246;9.410;2023-11-19T05:01:00;11.48;;;6.13;;
69185;SDS011;56298;49.246;9.410;2023-11-19T05:03:26;10.87;;;5.33;;
69185;SDS011;56298;49.246;9.410;2023-11-19T05:05:52;13.27;;;5.90;;
69185;SDS011;56298;49.246;9.410;2023-11-19T05:08:17;11.27;;;5.83;;
69185;SDS011;56298;49.246;9.410;2023-11-19T05:10:42;10.13;;;5.22;;
69185;SDS011;56298;49.246;9.410;2023-11-19T05:13:08;9.73;;;5.10;;
69185;SDS011;56298;49.246;9.410;2023-11-19T05:15:33;10.60;;;5.50;;
69185;SDS011;56298;49.246;9.410;2023-11-19T05:17:58;11.27;;;5.63;;
69185;SDS011;56298;49.246;9.410;2023-11-19T05:20:23;10.03;;;5.50;;
69185;SDS011;56298;49.246;9.410;2023-11-19T05:22:49;12.43;;;6.13;;
69185;SDS011;56298;49.246;9.410;2023-11-19T05:25:18;10.55;;;5.90;;
69185;SDS011;56298;49.246;9.410;2023-11-19T05:27:45;11.27;;;5.97;;
69185;SDS011;56298;49.246;9.410;2023-11-19T05:30:10;10.97;;;5.90;;
69185;SDS011;56298;49.246;9.410;2023-11-19T05:32:36;8.93;;;4.47;;
69185;SDS011;56298;49.246;9.410;2023-11-19T05:35:01;7.63;;;3.50;;
69185;SDS011;56298;49.246;9.410;2023-11-19T05:37:26;8.63;;;3.60;;
69185;SDS011;56298;49.246;9.410;2023-11-19T05:39:52;7.17;;;2.93;;
69185;SDS011;56298;49.246;9.410;2023-11-19T05:42:17;7.27;;;3.30;;
69185;SDS011;56298;49.246;9.410;2023-11-19T05:44:43;8.20;;;3.23;;
69185;SDS011;56298;49.246;9.410;2023-11-19T05:47:08;6.20;;;2.67;;
69185;SDS011;56298;49.246;9.410;2023-11-19T05:49:33;7.00;;;3.23;;
69185;SDS011;56298;49.246;9.410;2023-11-19T05:51:58;6.68;;;2.47;;
69185;SDS011;56298;49.246;9.410;2023-11-19T05:54:24;6.95;;;2.90;;
69185;SDS011;56298;49.246;9.410;2023-11-19T05:56:50;5.22;;;1.90;;
69185;SDS011;56298;49.246;9.410;2023-11-19T05:59:18;5.20;;;1.83;;
69185;SDS011;56298;49.246;9.410;2023-11-19T06:01:44;5.07;;;1.80;;
69185;SDS011;56298;49.246;9.410;2023-11-19T06:04:09;5.20;;;1.30;;
69185;SDS011;56298;49.246;9.410;2023-11-19T06:06:35;7.37;;;2.50;;
69185;SDS011;56298;49.246;9.410;2023-11-19T06:09:01;10.82;;;3.95;;
69185;SDS011;56298;49.246;9.410;2023-11-19T06:11:26;6.30;;;1.70;;
69185;SDS011;56298;49.246;9.410;2023-11-19T06:13:52;5.30;;;1.50;;
69185;SDS011;56298;49.246;9.410;2023-11-19T06:16:17;3.93;;;1.33;;
69185;SDS011;56298;49.246;9.410;2023-11-19T06:18:43;5.20;;;1.60;;
69185;SDS011;56298;49.246;9.410;2023-11-19T06:21:09;4.10;;;1.27;;
69185;SDS011;56298;49.246;9.410;2023-11-19T06:23:34;4.17;;;1.30;;
69185;SDS011;56298;49.246;9.410;2023-11-19T06:25:59;4.33;;;1.00;;
69185;SDS011;56298;49.246;9.410;2023-11-19T06:28:25;3.60;;;1.10;;
69185;SDS011;56298;49.246;9.410;2023-11-19T06:30:50;5.80;;;1.07;;
69185;SDS011;56298;49.246;9.410;2023-11-19T06:33:15;4.63;;;1.10;;
69185;SDS011;56298;49.246;9.410;2023-11-19T06:35:41;5.50;;;1.20;;
69185;SDS011;56298;49.246;9.410;2023-11-19T06:38:06;5.20;;;0.90;;
69185;SDS011;56298;49.246;9.410;2023-11-19T06:40:32;4.83;;;1.10;;
69185;SDS011;56298;49.246;9.410;2023-11-19T06:42:58;3.97;;;1.20;;
69185;SDS011;56298;49.246;9.410;2023-11-19T06:45:23;4.33;;;1.17;;
69185;SDS011;56298;49.246;9.410;2023-11-19T06:47:48;3.60;;;0.93;;
69185;SDS011;56298;49.246;9.410;2023-11-19T06:50:14;4.73;;;1.27;;
69185;SDS011;56298;49.246;9.410;2023-11-19T06:52:40;4.90;;;1.10;;
69185;SDS011;56298;49.246;9.410;2023-11-19T06:55:05;4.50;;;1.00;;
69185;SDS011;56298;49.246;9.410;2023-11-19T06:57:31;3.67;;;0.80;;
69185;SDS011;56298;49.246;9.410;2023-11-19T06:59:57;6.68;;;2.10;;
69185;SDS011;56298;49.246;9.410;2023-11-19T07:02:23;17.48;;;7.63;;
69185;SDS011;56298;49.246;9.410;2023-11-19T07:04:48;3.97;;;1.13;;
69185;SDS011;56298;49.246;9.410;2023-11-19T07:07:15;6.57;;;2.87;;
69185;SDS011;56298;49.246;9.410;2023-11-19T07:09:40;6.50;;;3.00;;
69185;SDS011;56298;49.246;9.410;2023-11-19T07:12:06;5.70;;;2.10;;
69185;SDS011;56298;49.246;9.410;2023-11-19T07:14:31;4.57;;;2.00;;
69185;SDS011;56298;49.246;9.410;2023-11-19T07:16:57;4.00;;;1.30;;
69185;SDS011;56298;49.246;9.410;2023-11-19T07:19:22;4.93;;;1.60;;
69185;SDS011;56298;49.246;9.410;2023-11-19T07:21:47;4.03;;;1.53;;
69185;SDS011;56298;49.246;9.410;2023-11-19T07:24:13;3.58;;;1.10;;
69185;SDS011;56298;49.246;9.410;2023-11-19T07:26:45;5.25;;;2.20;;
69185;SDS011;56298;49.246;9.410;2023-11-19T07:29:12;4.60;;;1.20;;
69185;SDS011;56298;49.246;9.410;2023-11-19T07:31:41;3.70;;;0.90;;
69185;SDS011;56298;49.246;9.410;2023-11-19T07:34:09;6.00;;;1.90;;
69185;SDS011;56298;49.246;9.410;2023-11-19T07:36:35;3.70;;;0.95;;
69185;SDS011;56298;49.246;9.410;2023-11-19T07:39:01;3.63;;;1.20;;
69185;SDS011;56298;49.246;9.410;2023-11-19T07:41:26;6.77;;;2.27;;
69185;SDS011;56298;49.246;9.410;2023-11-19T07:43:51;4.00;;;1.10;;
69185;SDS011;56298;49.246;9.410;2023-11-19T07:46:17;7.57;;;3.30;;
69185;SDS011;56298;49.246;9.410;2023-11-19T07:48:45;4.80;;;0.90;;
69185;SDS011;56298;49.246;9.410;2023-11-19T07:51:14;10.13;;;4.00;;
69185;SDS011;56298;49.246;9.410;2023-11-19T07:53:40;6.10;;;2.20;;
69185;SDS011;56298;49.246;9.410;2023-11-19T07:56:06;7.32;;;2.75;;
69185;SDS011;56298;49.246;9.410;2023-11-19T07:58:32;37.15;;;15.13;;
69185;SDS011;56298;49.246;9.410;2023-11-19T08:00:57;19.73;;;9.63;;
69185;SDS011;56298;49.246;9.410;2023-11-19T08:03:23;15.73;;;7.53;;
69185;SDS011;56298;49.246;9.410;2023-11-19T08:05:48;8.37;;;3.17;;
69185;SDS011;56298;49.246;9.410;2023-11-19T08:08:14;8.00;;;3.03;;
69185;SDS011;56298;49.246;9.410;2023-11-19T08:10:40;3.85;;;1.00;;
69185;SDS011;56298;49.246;9.410;2023-11-19T08:13:05;6.13;;;1.75;;
69185;SDS011;56298;49.246;9.410;2023-11-19T08:15:31;15.80;;;6.97;;
69185;SDS011;56298;49.246;9.410;2023-11-19T08:17:56;7.30;;;2.30;;
69185;SDS011;56298;49.246;9.410;2023-11-19T08:20:22;14.00;;;5.40;;
69185;SDS011;56298;49.246;9.410;2023-11-19T08:22:47;6.65;;;2.40;;
69185;SDS011;56298;49.246;9.410;2023-11-19T08:25:13;14.98;;;5.75;;
69185;SDS011;56298;49.246;9.410;2023-11-19T08:27:38;8.43;;;3.07;;
69185;SDS011;56298;49.246;9.410;2023-11-19T08:30:04;6.63;;;2.53;;
69185;SDS011;56298;49.246;9.410;2023-11-19T08:32:31;26.60;;;12.57;;
69185;SDS011;56298;49.246;9.410;2023-11-19T08:34:56;9.73;;;4.10;;
69185;SDS011;56298;49.246;9.410;2023-11-19T08:37:21;7.18;;;2.60;;
69185;SDS011;56298;49.246;9.410;2023-11-19T08:39:47;9.17;;;4.30;;
69185;SDS011;56298;49.246;9.410;2023-11-19T08:42:13;14.05;;;6.95;;
69185;SDS011;56298;49.246;9.410;2023-11-19T08:44:38;12.73;;;5.47;;
69185;SDS011;56298;49.246;9.410;2023-11-19T08:47:03;24.00;;;12.40;;
69185;SDS011;56298;49.246;9.410;2023-11-19T08:49:29;6.77;;;2.60;;
69185;SDS011;56298;49.246;9.410;2023-11-19T08:51:54;15.00;;;7.10;;
69185;SDS011;56298;49.246;9.410;2023-11-19T08:54:20;20.97;;;9.77;;
69185;SDS011;56298;49.246;9.410;2023-11-19T08:56:46;8.23;;;2.95;;
69185;SDS011;56298;49.246;9.410;2023-11-19T08:59:11;13.03;;;6.73;;
69185;SDS011;56298;49.246;9.410;2023-11-19T09:01:37;16.30;;;7.00;;
69185;SDS011;56298;49.246;9.410;2023-11-19T09:04:02;6.27;;;2.20;;
69185;SDS011;56298;49.246;9.410;2023-11-19T09:06:27;6.90;;;3.08;;
69185;SDS011;56298;49.246;9.410;2023-11-19T09:08:53;5.33;;;1.53;;
69185;SDS011;56298;49.246;9.410;2023-11-19T09:11:18;20.88;;;11.63;;
69185;SDS011;56298;49.246;9.410;2023-11-19T09:13:43;6.30;;;1.98;;
69185;SDS011;56298;49.246;9.410;2023-11-19T09:16:11;5.28;;;1.70;;
69185;SDS011;56298;49.246;9.410;2023-11-19T09:18:37;25.90;;;13.13;;
69185;SDS011;56298;49.246;9.410;2023-11-19T09:21:02;5.00;;;1.67;;
69185;SDS011;56298;49.246;9.410;2023-11-19T09:23:28;3.63;;;1.10;;
69185;SDS011;56298;49.246;9.410;2023-11-19T09:25:55;5.53;;;1.77;;
69185;SDS011;56298;49.246;9.410;2023-11-19T09:28:20;8.20;;;4.23;;
69185;SDS011;56298;49.246;9.410;2023-11-19T09:30:46;6.17;;;2.20;;
69185;SDS011;56298;49.246;9.410;2023-11-19T09:33:11;13.17;;;5.93;;
69185;SDS011;56298;49.246;9.410;2023-11-19T09:35:36;12.13;;;5.50;;
69185;SDS011;56298;49.246;9.410;2023-11-19T09:38:02;5.40;;;1.23;;
69185;SDS011;56298;49.246;9.410;2023-11-19T09:40:27;4.70;;;1.33;;
69185;SDS011;56298;49.246;9.410;2023-11-19T09:42:53;4.35;;;1.20;;
69185;SDS011;56298;49.246;9.410;2023-11-19T09:45:20;5.43;;;2.10;;
69185;SDS011;56298;49.246;9.410;2023-11-19T09:47:46;5.45;;;1.95;;
69185;SDS011;56298;49.246;9.410;2023-11-19T09:50:14;2.80;;;0.70;;
69185;SDS011;56298;49.246;9.410;2023-11-19T09:52:42;5.80;;;1.48;;
69185;SDS011;56298;49.246;9.410;2023-11-19T09:55:08;3.90;;;0.73;;
69185;SDS011;56298;49.246;9.410;2023-11-19T09:57:33;4.40;;;1.08;;
69185;SDS011;56298;49.246;9.410;2023-11-19T10:00:02;3.20;;;0.70;;
69185;SDS011;56298;49.246;9.410;2023-11-19T10:02:31;6.25;;;1.23;;
69185;SDS011;56298;49.246;9.410;2023-11-19T10:04:59;5.97;;;2.23;;
69185;SDS011;56298;49.246;9.410;2023-11-19T10:07:30;6.47;;;2.77;;
69185;SDS011;56298;49.246;9.410;2023-11-19T10:10:00;8.48;;;3.13;;
69185;SDS011;56298;49.246;9.410;2023-11-19T10:12:27;8.75;;;3.30;;
69185;SDS011;56298;49.246;9.410;2023-11-19T10:14:54;10.23;;;4.10;;
69185;SDS011;56298;49.246;9.410;2023-11-19T10:17:22;7.93;;;3.38;;
69185;SDS011;56298;49.246;9.410;2023-11-19T10:19:54;11.13;;;4.40;;
69185;SDS011;56298;49.246;9.410;2023-11-19T10:22:19;9.23;;;3.23;;
69185;SDS011;56298;49.246;9.410;2023-11-19T10:24:44;5.20;;;1.50;;
69185;SDS011;56298;49.246;9.410;2023-11-19T10:27:10;5.53;;;1.60;;
69185;SDS011;56298;49.246;9.410;2023-11-19T10:29:36;5.17;;;1.73;;
69185;SDS011;56298;49.246;9.410;2023-11-19T10:32:02;9.98;;;3.88;;
69185;SDS011;56298;49.246;9.410;2023-11-19T10:34:30;4.43;;;0.95;;
69185;SDS011;56298;49.246;9.410;2023-11-19T10:36:57;5.18;;;1.30;;
69185;SDS011;56298;49.246;9.410;2023-11-19T10:39:31;4.53;;;1.10;;
69185;SDS011;56298;49.246;9.410;2023-11-19T10:49:09;4.05;;;1.08;;
69185;SDS011;56298;49.246;9.410;2023-11-19T11:36:58;6.13;;;2.10;;
69185;SDS011;56298;49.246;9.410;2023-11-19T11:40:09;7.47;;;2.53;;
69185;SDS011;56298;49.246;9.410;2023-11-19T11:42:42;5.28;;;1.30;;
69185;SDS011;56298;49.246;9.410;2023-11-19T11:45:11;7.13;;;2.50;;
69185;SDS011;56298;49.246;9.410;2023-11-19T11:50:50;4.43;;;0.88;;
69185;SDS011;56298;49.246;9.410;2023-11-19T11:53:20;7.33;;;1.70;;
69185;SDS011;56298;49.246;9.410;2023-11-19T11:56:02;4.90;;;1.00;;
69185;SDS011;56298;49.246;9.410;2023-11-19T11:59:23;3.38;;;0.77;;
69185;SDS011;56298;49.246;9.410;2023-11-19T12:02:40;3.40;;;0.80;;
69185;SDS011;56298;49.246;9.410;2023-11-19T12:06:00;4.68;;;0.88;;
69185;SDS011;56298;49.246;9.410;2023-11-19T12:08:52;4.70;;;0.90;;
69185;SDS011;56298;49.246;9.410;2023-11-19T12:15:04;5.20;;;1.10;;
69185;SDS011;56298;49.246;9.410;2023-11-19T12:17:56;5.03;;;0.80;;
69185;SDS011;56298;49.246;9.410;2023-11-19T12:20:42;3.85;;;0.90;;
69185;SDS011;56298;49.246;9.410;2023-11-19T12:23:30;4.22;;;0.70;;
69185;SDS011;56298;49.246;9.410;2023-11-19T12:26:40;4.93;;;1.05;;
69185;SDS011;56298;49.246;9.410;2023-11-19T12:29:21;4.85;;;1.10;;
69185;SDS011;56298;49.246;9.410;2023-11-19T12:31:53;5.18;;;1.10;;
69185;SDS011;56298;49.246;9.410;2023-11-19T12:34:25;4.72;;;0.90;;
69185;SDS011;56298;49.246;9.410;2023-11-19T12:36:53;5.67;;;1.20;;
69185;SDS011;56298;49.246;9.410;2023-11-19T12:39:18;4.00;;;0.80;;
69185;SDS011;56298;49.246;9.410;2023-11-19T12:41:51;6.17;;;1.70;;
69185;SDS011;56298;49.246;9.410;2023-11-19T12:44:17;10.60;;;4.95;;
69185;SDS011;56298;49.246;9.410;2023-11-19T12:46:42;5.57;;;1.50;;
69185;SDS011;56298;49.246;9.410;2023-11-19T12:49:08;5.03;;;1.40;;
69185;SDS011;56298;49.246;9.410;2023-11-19T12:51:36;6.63;;;2.17;;
69185;SDS011;56298;49.246;9.410;2023-11-19T12:54:01;5.37;;;1.10;;
69185;SDS011;56298;49.246;9.410;2023-11-19T12:56:27;6.97;;;1.80;;
69185;SDS011;56298;49.246;9.410;2023-11-19T12:58:52;4.87;;;1.13;;
69185;SDS011;56298;49.246;9.410;2023-11-19T13:01:18;5.53;;;1.00;;
69185;SDS011;56298;49.246;9.410;2023-11-19T13:03:44;5.20;;;0.98;;
69185;SDS011;56298;49.246;9.410;2023-11-19T13:06:13;5.03;;;0.80;;
69185;SDS011;56298;49.246;9.410;2023-11-19T13:08:50;3.50;;;0.90;;
69185;SDS011;56298;49.246;9.410;2023-11-19T13:11:34;3.77;;;0.80;;
69185;SDS011;56298;49.246;9.410;2023-11-19T13:14:05;4.53;;;0.73;;
69185;SDS011;56298;49.246;9.410;2023-11-19T13:16:33;3.78;;;0.88;;
69185;SDS011;56298;49.246;9.410;2023-11-19T13:19:01;3.75;;;0.73;;
69185;SDS011;56298;49.246;9.410;2023-11-19T13:21:26;3.87;;;0.77;;
69185;SDS011;56298;49.246;9.410;2023-11-19T13:23:51;4.03;;;0.70;;
69185;SDS011;56298;49.246;9.410;2023-11-19T13:26:17;4.93;;;0.90;;
69185;SDS011;56298;49.246;9.410;2023-11-19T13:28:42;5.10;;;0.80;;
69185;SDS011;56298;49.246;9.410;2023-11-19T13:31:07;4.00;;;0.80;;
69185;SDS011;56298;49.246;9.410;2023-11-19T13:33:33;4.70;;;0.90;;
69185;SDS011;56298;49.246;9.410;2023-11-19T13:35:59;5.38;;;0.98;;
69185;SDS011;56298;49.246;9.410;2023-11-19T13:38:30;3.67;;;0.75;;
69185;SDS011;56298;49.246;9.410;2023-11-19T13:40:56;5.10;;;1.08;;
69185;SDS011;56298;49.246;9.410;2023-11-19T13:43:21;3.27;;;0.80;;
69185;SDS011;56298;49.246;9.410;2023-11-19T13:45:47;4.13;;;0.70;;
69185;SDS011;56298;49.246;9.410;2023-11-19T13:48:12;7.43;;;3.17;;
69185;SDS011;56298;49.246;9.410;2023-11-19T13:50:37;7.17;;;1.90;;
69185;SDS011;56298;49.246;9.410;2023-11-19T13:53:02;4.30;;;1.00;;
69185;SDS011;56298;49.246;9.410;2023-11-19T13:55:29;4.38;;;0.80;;
69185;SDS011;56298;49.246;9.410;2023-11-19T13:57:55;9.68;;;2.83;;
69185;SDS011;56298;49.246;9.410;2023-11-19T14:00:20;3.77;;;1.20;;
69185;SDS011;56298;49.246;9.410;2023-11-19T14:02:48;9.45;;;3.97;;
69185;SDS011;56298;49.246;9.410;2023-11-19T14:05:13;10.05;;;3.83;;
69185;SDS011;56298;49.246;9.410;2023-11-19T14:07:42;7.15;;;2.55;;
69185;SDS011;56298;49.246;9.410;2023-11-19T14:10:08;7.45;;;2.28;;
69185;SDS011;56298;49.246;9.410;2023-11-19T14:12:37;7.88;;;2.60;;
69185;SDS011;56298;49.246;9.410;2023-11-19T14:15:03;9.02;;;2.58;;
69185;SDS011;56298;49.246;9.410;2023-11-19T14:17:31;16.98;;;7.05;;
69185;SDS011;56298;49.246;9.410;2023-11-19T14:19:56;8.68;;;3.50;;
69185;SDS011;56298;49.246;9.410;2023-11-19T14:22:22;8.40;;;3.20;;
69185;SDS011;56298;49.246;9.410;2023-11-19T14:24:47;10.50;;;3.73;;
69185;SDS011;56298;49.246;9.410;2023-11-19T14:27:13;5.63;;;1.87;;
69185;SDS011;56298;49.246;9.410;2023-11-19T14:29:38;4.47;;;1.20;;
69185;SDS011;56298;49.246;9.410;2023-11-19T14:32:04;6.07;;;1.38;;
69185;SDS011;56298;49.246;9.410;2023-11-19T14:34:30;11.07;;;3.77;;
69185;SDS011;56298;49.246;9.410;2023-11-19T14:36:56;14.43;;;5.50;;
69185;SDS011;56298;49.246;9.410;2023-11-19T14:39:21;8.95;;;2.15;;
69185;SDS011;56298;49.246;9.410;2023-11-19T14:41:47;5.40;;;1.30;;
69185;SDS011;56298;49.246;9.410;2023-11-19T14:44:12;5.03;;;1.30;;
69185;SDS011;56298;49.246;9.410;2023-11-19T14:46:37;7.77;;;2.40;;
69185;SDS011;56298;49.246;9.410;2023-11-19T14:49:03;4.80;;;1.27;;
69185;SDS011;56298;49.246;9.410;2023-11-19T14:51:35;5.30;;;1.30;;
69185;SDS011;56298;49.246;9.410;2023-11-19T14:54:00;7.05;;;1.30;;
69185;SDS011;56298;49.246;9.410;2023-11-19T14:56:26;5.43;;;1.67;;
69185;SDS011;56298;49.246;9.410;2023-11-19T14:58:51;5.53;;;1.67;;
69185;SDS011;56298;49.246;9.410;2023-11-19T15:01:16;8.68;;;2.90;;
69185;SDS011;56298;49.246;9.410;2023-11-19T15:03:42;9.00;;;2.40;;
69185;SDS011;56298;49.246;9.410;2023-11-19T15:06:07;5.60;;;1.40;;
69185;SDS011;56298;49.246;9.410;2023-11-19T15:08:33;7.23;;;2.47;;
69185;SDS011;56298;49.246;9.410;2023-11-19T15:10:58;10.25;;;3.42;;
69185;SDS011;56298;49.246;9.410;2023-11-19T15:13:26;11.73;;;4.55;;
69185;SDS011;56298;49.246;9.410;2023-11-19T15:15:52;6.07;;;1.95;;
69185;SDS011;56298;49.246;9.410;2023-11-19T15:18:18;4.57;;;1.25;;
69185;SDS011;56298;49.246;9.410;2023-11-19T15:20:44;9.77;;;3.42;;
69185;SDS011;56298;49.246;9.410;2023-11-19T15:23:12;11.73;;;4.53;;
69185;SDS011;56298;49.246;9.410;2023-11-19T15:25:40;10.02;;;3.67;;
69185;SDS011;56298;49.246;9.410;2023-11-19T15:28:06;14.77;;;5.97;;
69185;SDS011;56298;49.246;9.410;2023-11-19T15:30:31;11.57;;;4.93;;
69185;SDS011;56298;49.246;9.410;2023-11-19T15:32:56;12.67;;;6.53;;
69185;SDS011;56298;49.246;9.410;2023-11-19T15:35:22;12.37;;;3.97;;
69185;SDS011;56298;49.246;9.410;2023-11-19T15:37:47;10.47;;;4.60;;
69185;SDS011;56298;49.246;9.410;2023-11-19T15:40:13;10.23;;;4.95;;